sensor_id;sensor_type;location;lat;lon;timestamp;temperature;humidity
14057;DHT22;7103;54.300;10.180;2022-12-10T00:01:17;0.50;1.00
14057;DHT22;7103;54.300;10.180;2022-12-10T00:03:45;0.50;1.00
14057;DHT22;7103;54.300;10.180;2022-12-10T00:06:23;0.50;1.00
14057;DHT22;7103;54.300;10.180;2022-12-10T00:08:51;0.60;1.00
14057;DHT22;7103;54.300;10.180;2022-12-10T00:11:19;0.60;99.90
14057;DHT22;7103;54.300;10.180;2022-12-10T00:13:46;0.50;99.90
14057;DHT22;7103;54.300;10.180;2022-12-10T00:16:16;0.50;99.90
14057;DHT22;7103;54.300;10.180;2022-12-10T00:18:44;0.40;99.90
14057;DHT22;7103;54.300;10.180;2022-12-10T00:21:17;0.40;99.90
14057;DHT22;7103;54.300;10.180;2022-12-10T00:23:45;0.50;99.90
14057;DHT22;7103;54.300;10.180;2022-12-10T00:26:47;0.40;99.90
14057;DHT22;7103;54.300;10.180;2022-12-10T00:29:09;0.30;99.90
14057;DHT22;7103;54.300;10.180;2022-12-10T00:31:37;0.40;99.90
14057;DHT22;7103;54.300;10.180;2022-12-10T00:34:06;0.30;99.90
14057;DHT22;7103;54.300;10.180;2022-12-10T00:36:46;0.50;99.90
14057;DHT22;7103;54.300;10.180;2022-12-10T00:39:17;0.40;99.90
14057;DHT22;7103;54.300;10.180;2022-12-10T00:41:45;0.40;99.90
14057;DHT22;7103;54.300;10.180;2022-12-10T00:44:13;0.40;99.90
14057;DHT22;7103;54.300;10.180;2022-12-10T00:46:40;0.40;99.90
14057;DHT22;7103;54.300;10.180;2022-12-10T00:49:06;0.40;99.90
14057;DHT22;7103;54.300;10.180;2022-12-10T00:51:33;0.40;99.90
14057;DHT22;7103;54.300;10.180;2022-12-10T00:54:00;0.40;99.90
14057;DHT22;7103;54.300;10.180;2022-12-10T00:56:31;0.50;99.90
14057;DHT22;7103;54.300;10.180;2022-12-10T00:59:02;0.30;99.90
14057;DHT22;7103;54.300;10.180;2022-12-10T01:01:35;0.30;99.90
14057;DHT22;7103;54.300;10.180;2022-12-10T01:04:07;0.30;99.90
14057;DHT22;7103;54.300;10.180;2022-12-10T01:06:36;0.30;99.90
14057;DHT22;7103;54.300;10.180;2022-12-10T01:09:05;0.30;99.90
14057;DHT22;7103;54.300;10.180;2022-12-10T01:11:35;0.40;99.90
14057;DHT22;7103;54.300;10.180;2022-12-10T01:14:05;0.40;99.90
14057;DHT22;7103;54.300;10.180;2022-12-10T01:16:31;0.30;99.90
14057;DHT22;7103;54.300;10.180;2022-12-10T01:18:59;0.40;99.90
14057;DHT22;7103;54.300;10.180;2022-12-10T01:21:27;0.40;99.90
14057;DHT22;7103;54.300;10.180;2022-12-10T01:23:56;0.30;99.90
14057;DHT22;7103;54.300;10.180;2022-12-10T01:26:26;0.30;99.90
14057;DHT22;7103;54.300;10.180;2022-12-10T01:28:54;0.40;99.90
14057;DHT22;7103;54.300;10.180;2022-12-10T01:31:25;0.30;99.90
14057;DHT22;7103;54.300;10.180;2022-12-10T01:33:53;0.30;99.90
14057;DHT22;7103;54.300;10.180;2022-12-10T01:36:25;0.30;99.90
14057;DHT22;7103;54.300;10.180;2022-12-10T01:38:53;0.30;99.90
14057;DHT22;7103;54.300;10.180;2022-12-10T01:41:26;0.30;99.90
14057;DHT22;7103;54.300;10.180;2022-12-10T01:46:26;0.40;99.90
14057;DHT22;7103;54.300;10.180;2022-12-10T01:48:53;0.30;99.90
14057;DHT22;7103;54.300;10.180;2022-12-10T01:51:21;0.30;99.90
14057;DHT22;7103;54.300;10.180;2022-12-10T01:53:48;0.30;99.90
14057;DHT22;7103;54.300;10.180;2022-12-10T01:56:18;0.30;99.90
14057;DHT22;7103;54.300;10.180;2022-12-10T01:58:47;0.30;99.90
14057;DHT22;7103;54.300;10.180;2022-12-10T02:12:46;0.30;99.90
14057;DHT22;7103;54.300;10.180;2022-12-10T02:15:26;0.20;99.90
14057;DHT22;7103;54.300;10.180;2022-12-10T02:18:06;0.20;99.90
14057;DHT22;7103;54.300;10.180;2022-12-10T02:20:56;0.10;99.90
14057;DHT22;7103;54.300;10.180;2022-12-10T02:23:31;0.20;99.90
14057;DHT22;7103;54.300;10.180;2022-12-10T02:26:14;0.20;99.90
14057;DHT22;7103;54.300;10.180;2022-12-10T02:31:21;0.30;99.90
14057;DHT22;7103;54.300;10.180;2022-12-10T02:33:51;0.30;99.90
14057;DHT22;7103;54.300;10.180;2022-12-10T02:36:21;0.30;99.90
14057;DHT22;7103;54.300;10.180;2022-12-10T02:38:51;0.30;99.90
14057;DHT22;7103;54.300;10.180;2022-12-10T02:41:23;0.30;99.90
14057;DHT22;7103;54.300;10.180;2022-12-10T02:43:52;0.20;99.90
14057;DHT22;7103;54.300;10.180;2022-12-10T02:46:22;0.30;99.90
14057;DHT22;7103;54.300;10.180;2022-12-10T02:48:51;0.20;99.90
14057;DHT22;7103;54.300;10.180;2022-12-10T02:51:18;0.10;99.90
14057;DHT22;7103;54.300;10.180;2022-12-10T02:53:46;0.20;99.90
14057;DHT22;7103;54.300;10.180;2022-12-10T02:56:33;0.20;99.90
14057;DHT22;7103;54.300;10.180;2022-12-10T02:59:16;0.20;99.90
14057;DHT22;7103;54.300;10.180;2022-12-10T03:01:57;0.20;99.90
14057;DHT22;7103;54.300;10.180;2022-12-10T03:04:37;0.20;99.90
14057;DHT22;7103;54.300;10.180;2022-12-10T03:07:28;0.30;99.90
14057;DHT22;7103;54.300;10.180;2022-12-10T03:10:05;0.30;99.90
14057;DHT22;7103;54.300;10.180;2022-12-10T03:12:45;0.20;99.90
14057;DHT22;7103;54.300;10.180;2022-12-10T03:15:14;0.20;99.90
14057;DHT22;7103;54.300;10.180;2022-12-10T03:17:43;0.30;99.90
14057;DHT22;7103;54.300;10.180;2022-12-10T03:20:13;0.30;99.90
14057;DHT22;7103;54.300;10.180;2022-12-10T03:22:44;0.20;99.90
14057;DHT22;7103;54.300;10.180;2022-12-10T03:25:16;0.20;99.90
14057;DHT22;7103;54.300;10.180;2022-12-10T03:27:45;0.20;99.90
14057;DHT22;7103;54.300;10.180;2022-12-10T03:30:13;0.20;99.90
14057;DHT22;7103;54.300;10.180;2022-12-10T03:32:40;0.30;99.90
14057;DHT22;7103;54.300;10.180;2022-12-10T03:35:07;0.20;99.90
14057;DHT22;7103;54.300;10.180;2022-12-10T03:37:34;0.20;99.90
14057;DHT22;7103;54.300;10.180;2022-12-10T03:40:03;0.20;99.90
14057;DHT22;7103;54.300;10.180;2022-12-10T03:42:32;0.20;99.90
14057;DHT22;7103;54.300;10.180;2022-12-10T03:44:58;0.20;99.90
14057;DHT22;7103;54.300;10.180;2022-12-10T03:47:25;0.20;99.90
14057;DHT22;7103;54.300;10.180;2022-12-10T03:49:52;0.20;99.90
14057;DHT22;7103;54.300;10.180;2022-12-10T03:52:19;0.30;99.90
14057;DHT22;7103;54.300;10.180;2022-12-10T03:54:46;0.30;99.90
14057;DHT22;7103;54.300;10.180;2022-12-10T03:57:13;0.40;99.90
14057;DHT22;7103;54.300;10.180;2022-12-10T03:59:40;0.40;99.90
14057;DHT22;7103;54.300;10.180;2022-12-10T04:02:06;0.30;99.90
14057;DHT22;7103;54.300;10.180;2022-12-10T04:04:33;0.20;99.90
14057;DHT22;7103;54.300;10.180;2022-12-10T04:07:00;0.20;99.90
14057;DHT22;7103;54.300;10.180;2022-12-10T04:09:27;0.20;99.90
14057;DHT22;7103;54.300;10.180;2022-12-10T04:11:58;0.20;99.90
14057;DHT22;7103;54.300;10.180;2022-12-10T04:14:28;0.30;99.90
14057;DHT22;7103;54.300;10.180;2022-12-10T04:17:13;0.40;99.90
14057;DHT22;7103;54.300;10.180;2022-12-10T04:19:40;0.30;99.90
14057;DHT22;7103;54.300;10.180;2022-12-10T04:22:09;0.40;99.90
14057;DHT22;7103;54.300;10.180;2022-12-10T04:24:55;0.30;99.90
14057;DHT22;7103;54.300;10.180;2022-12-10T04:27:40;0.20;99.90
14057;DHT22;7103;54.300;10.180;2022-12-10T04:30:11;0.20;99.90
14057;DHT22;7103;54.300;10.180;2022-12-10T04:32:38;0.20;99.90
14057;DHT22;7103;54.300;10.180;2022-12-10T04:35:05;0.20;99.90
14057;DHT22;7103;54.300;10.180;2022-12-10T04:37:32;0.30;99.90
14057;DHT22;7103;54.300;10.180;2022-12-10T04:39:59;0.30;99.90
14057;DHT22;7103;54.300;10.180;2022-12-10T04:42:26;0.30;99.90
14057;DHT22;7103;54.300;10.180;2022-12-10T04:44:53;0.20;99.90
14057;DHT22;7103;54.300;10.180;2022-12-10T04:47:20;0.20;99.90
14057;DHT22;7103;54.300;10.180;2022-12-10T04:49:47;0.20;99.90
14057;DHT22;7103;54.300;10.180;2022-12-10T04:52:16;0.30;99.90
14057;DHT22;7103;54.300;10.180;2022-12-10T04:54:44;0.30;99.90
14057;DHT22;7103;54.300;10.180;2022-12-10T04:57:11;0.30;99.90
14057;DHT22;7103;54.300;10.180;2022-12-10T04:59:38;0.40;99.90
14057;DHT22;7103;54.300;10.180;2022-12-10T05:02:05;0.40;99.90
14057;DHT22;7103;54.300;10.180;2022-12-10T05:04:33;0.40;99.90
14057;DHT22;7103;54.300;10.180;2022-12-10T05:07:00;0.30;99.90
14057;DHT22;7103;54.300;10.180;2022-12-10T05:09:27;0.30;99.90
14057;DHT22;7103;54.300;10.180;2022-12-10T05:11:53;0.30;99.90
14057;DHT22;7103;54.300;10.180;2022-12-10T05:14:20;0.30;99.90
14057;DHT22;7103;54.300;10.180;2022-12-10T05:16:49;0.30;99.90
14057;DHT22;7103;54.300;10.180;2022-12-10T05:19:17;0.40;99.90
14057;DHT22;7103;54.300;10.180;2022-12-10T05:21:46;0.40;99.90
14057;DHT22;7103;54.300;10.180;2022-12-10T05:24:48;0.40;99.90
14057;DHT22;7103;54.300;10.180;2022-12-10T05:27:15;0.50;99.90
14057;DHT22;7103;54.300;10.180;2022-12-10T05:29:42;0.40;99.90
14057;DHT22;7103;54.300;10.180;2022-12-10T05:32:09;0.50;99.90
14057;DHT22;7103;54.300;10.180;2022-12-10T05:34:36;0.40;99.90
14057;DHT22;7103;54.300;10.180;2022-12-10T05:37:03;0.30;99.90
14057;DHT22;7103;54.300;10.180;2022-12-10T05:39:29;0.30;99.90
14057;DHT22;7103;54.300;10.180;2022-12-10T05:41:56;0.40;99.90
14057;DHT22;7103;54.300;10.180;2022-12-10T05:44:23;0.40;99.90
14057;DHT22;7103;54.300;10.180;2022-12-10T05:46:52;0.40;99.90
14057;DHT22;7103;54.300;10.180;2022-12-10T05:49:18;0.40;99.90
14057;DHT22;7103;54.300;10.180;2022-12-10T05:51:45;0.30;99.90
14057;DHT22;7103;54.300;10.180;2022-12-10T05:54:12;0.30;99.90
14057;DHT22;7103;54.300;10.180;2022-12-10T05:56:39;0.30;99.90
14057;DHT22;7103;54.300;10.180;2022-12-10T05:59:06;0.40;99.90
14057;DHT22;7103;54.300;10.180;2022-12-10T06:01:41;0.40;99.90
14057;DHT22;7103;54.300;10.180;2022-12-10T06:04:08;0.40;99.90
14057;DHT22;7103;54.300;10.180;2022-12-10T06:06:37;0.30;99.90
14057;DHT22;7103;54.300;10.180;2022-12-10T06:09:06;0.30;99.90
14057;DHT22;7103;54.300;10.180;2022-12-10T06:11:33;0.30;99.90
14057;DHT22;7103;54.300;10.180;2022-12-10T06:14:00;0.30;99.90
14057;DHT22;7103;54.300;10.180;2022-12-10T06:16:28;0.30;99.90
14057;DHT22;7103;54.300;10.180;2022-12-10T06:18:56;0.30;99.90
14057;DHT22;7103;54.300;10.180;2022-12-10T06:21:25;0.40;99.90
14057;DHT22;7103;54.300;10.180;2022-12-10T06:23:52;0.40;99.90
14057;DHT22;7103;54.300;10.180;2022-12-10T06:26:21;0.30;99.90
14057;DHT22;7103;54.300;10.180;2022-12-10T06:28:48;0.40;99.90
14057;DHT22;7103;54.300;10.180;2022-12-10T06:31:16;0.40;99.90
14057;DHT22;7103;54.300;10.180;2022-12-10T06:33:43;0.30;99.90
14057;DHT22;7103;54.300;10.180;2022-12-10T06:36:12;0.20;99.90
14057;DHT22;7103;54.300;10.180;2022-12-10T06:38:39;0.30;99.90
14057;DHT22;7103;54.300;10.180;2022-12-10T06:41:08;0.30;99.90
14057;DHT22;7103;54.300;10.180;2022-12-10T06:43:36;0.30;99.90
14057;DHT22;7103;54.300;10.180;2022-12-10T06:46:07;0.20;99.90
14057;DHT22;7103;54.300;10.180;2022-12-10T06:48:36;0.20;99.90
14057;DHT22;7103;54.300;10.180;2022-12-10T06:51:03;0.20;99.90
14057;DHT22;7103;54.300;10.180;2022-12-10T06:53:32;0.30;99.90
14057;DHT22;7103;54.300;10.180;2022-12-10T06:56:00;0.20;99.90
14057;DHT22;7103;54.300;10.180;2022-12-10T06:58:28;0.20;99.90
14057;DHT22;7103;54.300;10.180;2022-12-10T07:01:07;0.10;99.90
14057;DHT22;7103;54.300;10.180;2022-12-10T07:03:34;0.30;99.90
14057;DHT22;7103;54.300;10.180;2022-12-10T07:06:02;0.10;99.90
14057;DHT22;7103;54.300;10.180;2022-12-10T07:08:29;0.00;99.90
14057;DHT22;7103;54.300;10.180;2022-12-10T07:10:56;0.00;99.90
14057;DHT22;7103;54.300;10.180;2022-12-10T07:13:24;0.10;99.90
14057;DHT22;7103;54.300;10.180;2022-12-10T07:15:57;0.10;99.90
14057;DHT22;7103;54.300;10.180;2022-12-10T07:18:25;0.20;99.90
14057;DHT22;7103;54.300;10.180;2022-12-10T07:20:52;0.20;99.90
14057;DHT22;7103;54.300;10.180;2022-12-10T07:23:19;0.10;99.90
14057;DHT22;7103;54.300;10.180;2022-12-10T07:25:46;0.10;99.90
14057;DHT22;7103;54.300;10.180;2022-12-10T07:28:13;0.00;99.90
14057;DHT22;7103;54.300;10.180;2022-12-10T07:30:40;0.00;99.90
14057;DHT22;7103;54.300;10.180;2022-12-10T07:33:07;0.00;99.90
14057;DHT22;7103;54.300;10.180;2022-12-10T07:35:34;0.00;99.90
14057;DHT22;7103;54.300;10.180;2022-12-10T07:38:01;0.10;99.90
14057;DHT22;7103;54.300;10.180;2022-12-10T07:40:28;0.20;99.90
14057;DHT22;7103;54.300;10.180;2022-12-10T07:42:55;0.30;99.90
14057;DHT22;7103;54.300;10.180;2022-12-10T07:45:21;0.20;99.90
14057;DHT22;7103;54.300;10.180;2022-12-10T07:47:48;0.40;99.90
14057;DHT22;7103;54.300;10.180;2022-12-10T07:50:15;0.30;99.90
14057;DHT22;7103;54.300;10.180;2022-12-10T07:52:42;0.20;99.90
14057;DHT22;7103;54.300;10.180;2022-12-10T07:55:09;0.20;99.90
14057;DHT22;7103;54.300;10.180;2022-12-10T07:57:36;0.20;99.90
14057;DHT22;7103;54.300;10.180;2022-12-10T08:00:03;0.30;99.90
14057;DHT22;7103;54.300;10.180;2022-12-10T08:02:30;0.30;99.90
14057;DHT22;7103;54.300;10.180;2022-12-10T08:04:57;0.20;99.90
14057;DHT22;7103;54.300;10.180;2022-12-10T08:07:24;0.20;99.90
14057;DHT22;7103;54.300;10.180;2022-12-10T08:09:51;0.30;99.90
14057;DHT22;7103;54.300;10.180;2022-12-10T08:12:18;0.30;99.90
14057;DHT22;7103;54.300;10.180;2022-12-10T08:14:45;0.30;99.90
14057;DHT22;7103;54.300;10.180;2022-12-10T08:17:11;0.30;99.90
14057;DHT22;7103;54.300;10.180;2022-12-10T08:19:38;0.20;99.90
14057;DHT22;7103;54.300;10.180;2022-12-10T08:22:05;0.30;99.90
14057;DHT22;7103;54.300;10.180;2022-12-10T08:24:32;0.10;99.90
14057;DHT22;7103;54.300;10.180;2022-12-10T08:26:59;0.00;99.90
14057;DHT22;7103;54.300;10.180;2022-12-10T08:29:26;0.20;99.90
14057;DHT22;7103;54.300;10.180;2022-12-10T08:31:52;0.10;99.90
14057;DHT22;7103;54.300;10.180;2022-12-10T08:34:19;0.10;99.90
14057;DHT22;7103;54.300;10.180;2022-12-10T08:36:46;0.00;99.90
14057;DHT22;7103;54.300;10.180;2022-12-10T08:39:14;0.20;99.90
14057;DHT22;7103;54.300;10.180;2022-12-10T08:41:43;0.20;99.90
14057;DHT22;7103;54.300;10.180;2022-12-10T08:44:11;0.20;99.90
14057;DHT22;7103;54.300;10.180;2022-12-10T08:46:38;0.10;99.90
14057;DHT22;7103;54.300;10.180;2022-12-10T08:49:05;0.10;99.90
14057;DHT22;7103;54.300;10.180;2022-12-10T08:51:33;0.10;99.90
14057;DHT22;7103;54.300;10.180;2022-12-10T08:54:00;0.10;99.90
14057;DHT22;7103;54.300;10.180;2022-12-10T08:56:27;0.10;99.90
14057;DHT22;7103;54.300;10.180;2022-12-10T08:58:54;0.10;99.90
14057;DHT22;7103;54.300;10.180;2022-12-10T09:01:21;0.10;99.90
14057;DHT22;7103;54.300;10.180;2022-12-10T09:03:48;0.10;99.90
14057;DHT22;7103;54.300;10.180;2022-12-10T09:06:19;0.10;99.90
14057;DHT22;7103;54.300;10.180;2022-12-10T09:08:46;0.10;99.90
14057;DHT22;7103;54.300;10.180;2022-12-10T09:13:42;0.20;99.90
14057;DHT22;7103;54.300;10.180;2022-12-10T09:16:09;0.10;99.90
14057;DHT22;7103;54.300;10.180;2022-12-10T09:18:36;0.00;99.90
14057;DHT22;7103;54.300;10.180;2022-12-10T09:21:21;0.00;99.90
14057;DHT22;7103;54.300;10.180;2022-12-10T09:23:49;0.10;99.90
14057;DHT22;7103;54.300;10.180;2022-12-10T09:26:17;0.10;99.90
14057;DHT22;7103;54.300;10.180;2022-12-10T09:28:45;0.00;99.90
14057;DHT22;7103;54.300;10.180;2022-12-10T09:31:13;0.20;99.90
14057;DHT22;7103;54.300;10.180;2022-12-10T09:33:47;0.10;99.90
14057;DHT22;7103;54.300;10.180;2022-12-10T09:36:14;0.10;99.90
14057;DHT22;7103;54.300;10.180;2022-12-10T09:38:43;0.00;99.90
14057;DHT22;7103;54.300;10.180;2022-12-10T09:43:58;-0.10;99.90
14057;DHT22;7103;54.300;10.180;2022-12-10T09:46:44;-0.10;99.90
14057;DHT22;7103;54.300;10.180;2022-12-10T09:51:42;0.10;99.90
14057;DHT22;7103;54.300;10.180;2022-12-10T09:54:19;0.10;99.90
14057;DHT22;7103;54.300;10.180;2022-12-10T09:56:48;0.10;99.90
14057;DHT22;7103;54.300;10.180;2022-12-10T09:59:42;0.10;99.90
14057;DHT22;7103;54.300;10.180;2022-12-10T10:02:28;0.20;99.90
14057;DHT22;7103;54.300;10.180;2022-12-10T10:07:49;0.00;99.90
14057;DHT22;7103;54.300;10.180;2022-12-10T10:10:28;0.00;99.90
14057;DHT22;7103;54.300;10.180;2022-12-10T10:13:45;0.00;99.90
14057;DHT22;7103;54.300;10.180;2022-12-10T10:15:46;0.10;99.90
14057;DHT22;7103;54.300;10.180;2022-12-10T10:18:32;0.10;99.90
14057;DHT22;7103;54.300;10.180;2022-12-10T10:21:00;0.10;99.90
14057;DHT22;7103;54.300;10.180;2022-12-10T10:23:29;0.10;99.90
14057;DHT22;7103;54.300;10.180;2022-12-10T10:25:56;0.10;99.90
14057;DHT22;7103;54.300;10.180;2022-12-10T10:28:23;0.20;99.90
14057;DHT22;7103;54.300;10.180;2022-12-10T10:30:52;0.20;99.90
14057;DHT22;7103;54.300;10.180;2022-12-10T10:33:20;0.20;99.90
14057;DHT22;7103;54.300;10.180;2022-12-10T10:35:56;0.20;99.90
14057;DHT22;7103;54.300;10.180;2022-12-10T10:38:28;0.30;99.90
14057;DHT22;7103;54.300;10.180;2022-12-10T10:41:00;0.20;99.90
14057;DHT22;7103;54.300;10.180;2022-12-10T10:43:33;0.20;99.90
14057;DHT22;7103;54.300;10.180;2022-12-10T10:46:22;0.10;99.90
14057;DHT22;7103;54.300;10.180;2022-12-10T10:48:50;0.00;99.90
14057;DHT22;7103;54.300;10.180;2022-12-10T10:51:22;0.10;99.90
14057;DHT22;7103;54.300;10.180;2022-12-10T10:53:52;0.10;99.90
14057;DHT22;7103;54.300;10.180;2022-12-10T10:56:29;0.00;99.90
14057;DHT22;7103;54.300;10.180;2022-12-10T11:05:14;0.10;99.90
14057;DHT22;7103;54.300;10.180;2022-12-10T11:07:42;0.10;99.90
14057;DHT22;7103;54.300;10.180;2022-12-10T11:10:23;0.10;99.90
14057;DHT22;7103;54.300;10.180;2022-12-10T11:13:05;0.10;99.90
14057;DHT22;7103;54.300;10.180;2022-12-10T11:15:40;0.00;99.90
14057;DHT22;7103;54.300;10.180;2022-12-10T11:24:04;-0.10;99.90
14057;DHT22;7103;54.300;10.180;2022-12-10T11:29:08;0.00;99.90
14057;DHT22;7103;54.300;10.180;2022-12-10T11:42:58;-0.10;99.90
14057;DHT22;7103;54.300;10.180;2022-12-10T11:51:05;0.00;99.90
14057;DHT22;7103;54.300;10.180;2022-12-10T11:56:59;-0.10;99.90
14057;DHT22;7103;54.300;10.180;2022-12-10T11:59:34;-0.10;99.90
14057;DHT22;7103;54.300;10.180;2022-12-10T12:08:01;-0.10;99.90
14057;DHT22;7103;54.300;10.180;2022-12-10T12:10:52;-0.10;99.90
14057;DHT22;7103;54.300;10.180;2022-12-10T12:13:29;-0.10;99.90
14057;DHT22;7103;54.300;10.180;2022-12-10T12:16:12;-0.10;99.90
14057;DHT22;7103;54.300;10.180;2022-12-10T12:21:13;-0.10;99.90
14057;DHT22;7103;54.300;10.180;2022-12-10T12:26:41;-0.20;99.90
14057;DHT22;7103;54.300;10.180;2022-12-10T12:29:26;-0.20;99.90
14057;DHT22;7103;54.300;10.180;2022-12-10T12:32:03;-0.10;99.90
14057;DHT22;7103;54.300;10.180;2022-12-10T12:37:17;-0.10;99.90
14057;DHT22;7103;54.300;10.180;2022-12-10T12:40:02;-0.10;99.90
14057;DHT22;7103;54.300;10.180;2022-12-10T12:42:35;-0.10;99.90
14057;DHT22;7103;54.300;10.180;2022-12-10T12:45:19;-0.20;99.90
14057;DHT22;7103;54.300;10.180;2022-12-10T12:53:11;0.00;99.90
14057;DHT22;7103;54.300;10.180;2022-12-10T13:01:05;-0.20;99.90
14057;DHT22;7103;54.300;10.180;2022-12-10T13:03:41;-0.30;99.90
14057;DHT22;7103;54.300;10.180;2022-12-10T13:06:17;-0.10;99.90
14057;DHT22;7103;54.300;10.180;2022-12-10T13:08:57;-0.10;99.90
14057;DHT22;7103;54.300;10.180;2022-12-10T13:11:30;-0.10;99.90
14057;DHT22;7103;54.300;10.180;2022-12-10T13:16:47;-0.20;99.90
14057;DHT22;7103;54.300;10.180;2022-12-10T13:27:19;-0.10;99.90
14057;DHT22;7103;54.300;10.180;2022-12-10T13:40:38;-0.20;99.90
14057;DHT22;7103;54.300;10.180;2022-12-10T13:46:32;-0.20;99.90
14057;DHT22;7103;54.300;10.180;2022-12-10T13:49:04;-0.40;99.90
14057;DHT22;7103;54.300;10.180;2022-12-10T13:51:38;-0.20;99.90
14057;DHT22;7103;54.300;10.180;2022-12-10T14:07:39;-0.30;99.90
14057;DHT22;7103;54.300;10.180;2022-12-10T14:10:14;-0.30;99.90
14057;DHT22;7103;54.300;10.180;2022-12-10T14:12:44;-0.40;99.90
14057;DHT22;7103;54.300;10.180;2022-12-10T14:15:18;-0.30;99.90
14057;DHT22;7103;54.300;10.180;2022-12-10T14:17:46;-0.30;99.90
14057;DHT22;7103;54.300;10.180;2022-12-10T14:20:17;-0.30;99.40
14057;DHT22;7103;54.300;10.180;2022-12-10T14:22:49;-0.30;99.90
14057;DHT22;7103;54.300;10.180;2022-12-10T14:25:20;-0.40;99.90
14057;DHT22;7103;54.300;10.180;2022-12-10T14:27:54;-0.40;99.90
14057;DHT22;7103;54.300;10.180;2022-12-10T14:30:24;-0.40;99.90
14057;DHT22;7103;54.300;10.180;2022-12-10T14:32:57;-0.30;99.90
14057;DHT22;7103;54.300;10.180;2022-12-10T14:35:27;-0.40;99.90
14057;DHT22;7103;54.300;10.180;2022-12-10T14:37:57;-0.40;99.90
14057;DHT22;7103;54.300;10.180;2022-12-10T14:40:30;-0.40;99.90
14057;DHT22;7103;54.300;10.180;2022-12-10T14:43:07;-0.30;99.90
14057;DHT22;7103;54.300;10.180;2022-12-10T14:45:59;-0.30;99.90
14057;DHT22;7103;54.300;10.180;2022-12-10T14:48:27;-0.30;99.90
14057;DHT22;7103;54.300;10.180;2022-12-10T14:50:56;-0.40;99.90
14057;DHT22;7103;54.300;10.180;2022-12-10T14:53:30;-0.30;99.90
14057;DHT22;7103;54.300;10.180;2022-12-10T14:56:04;-0.10;99.90
14057;DHT22;7103;54.300;10.180;2022-12-10T14:58:39;-0.30;99.90
14057;DHT22;7103;54.300;10.180;2022-12-10T15:01:36;-0.30;99.90
14057;DHT22;7103;54.300;10.180;2022-12-10T15:04:07;-0.40;99.90
14057;DHT22;7103;54.300;10.180;2022-12-10T15:06:39;-0.40;99.90
14057;DHT22;7103;54.300;10.180;2022-12-10T15:09:14;-0.50;99.90
14057;DHT22;7103;54.300;10.180;2022-12-10T15:11:41;-0.50;99.90
14057;DHT22;7103;54.300;10.180;2022-12-10T15:14:17;-0.40;99.90
14057;DHT22;7103;54.300;10.180;2022-12-10T15:16:47;-0.40;99.90
14057;DHT22;7103;54.300;10.180;2022-12-10T15:21:58;-0.30;99.90
14057;DHT22;7103;54.300;10.180;2022-12-10T15:24:36;-0.40;99.90
14057;DHT22;7103;54.300;10.180;2022-12-10T15:27:15;-0.40;99.90
14057;DHT22;7103;54.300;10.180;2022-12-10T15:29:43;-0.50;99.90
14057;DHT22;7103;54.300;10.180;2022-12-10T15:32:22;-0.50;99.90
14057;DHT22;7103;54.300;10.180;2022-12-10T15:34:59;-0.40;99.90
14057;DHT22;7103;54.300;10.180;2022-12-10T15:37:32;-0.50;99.90
14057;DHT22;7103;54.300;10.180;2022-12-10T15:40:03;-0.50;99.90
14057;DHT22;7103;54.300;10.180;2022-12-10T15:42:39;-0.50;99.90
14057;DHT22;7103;54.300;10.180;2022-12-10T15:47:46;-0.40;99.90
14057;DHT22;7103;54.300;10.180;2022-12-10T15:50:13;-0.40;99.90
14057;DHT22;7103;54.300;10.180;2022-12-10T15:52:40;-0.40;99.90
14057;DHT22;7103;54.300;10.180;2022-12-10T15:55:09;-0.40;99.90
14057;DHT22;7103;54.300;10.180;2022-12-10T15:57:37;-0.30;99.90
14057;DHT22;7103;54.300;10.180;2022-12-10T16:00:19;-0.40;99.90
14057;DHT22;7103;54.300;10.180;2022-12-10T16:05:23;-0.40;99.90
14057;DHT22;7103;54.300;10.180;2022-12-10T16:07:52;-0.40;99.90
14057;DHT22;7103;54.300;10.180;2022-12-10T16:10:22;-0.40;99.90
14057;DHT22;7103;54.300;10.180;2022-12-10T16:15:27;-0.30;99.90
14057;DHT22;7103;54.300;10.180;2022-12-10T16:17:54;-0.40;99.90
14057;DHT22;7103;54.300;10.180;2022-12-10T16:22:49;-0.30;99.90
14057;DHT22;7103;54.300;10.180;2022-12-10T16:25:16;-0.20;99.90
14057;DHT22;7103;54.300;10.180;2022-12-10T16:27:43;-0.20;99.90
14057;DHT22;7103;54.300;10.180;2022-12-10T16:30:17;-0.20;95.90
14057;DHT22;7103;54.300;10.180;2022-12-10T16:32:45;-0.30;93.90
14057;DHT22;7103;54.300;10.180;2022-12-10T16:35:13;-0.40;95.70
14057;DHT22;7103;54.300;10.180;2022-12-10T16:37:42;-0.40;97.80
14057;DHT22;7103;54.300;10.180;2022-12-10T16:40:13;-0.40;99.90
14057;DHT22;7103;54.300;10.180;2022-12-10T16:42:41;-0.50;99.90
14057;DHT22;7103;54.300;10.180;2022-12-10T16:45:29;-0.50;99.90
14057;DHT22;7103;54.300;10.180;2022-12-10T16:47:57;-0.50;99.90
14057;DHT22;7103;54.300;10.180;2022-12-10T16:50:24;-0.30;99.90
14057;DHT22;7103;54.300;10.180;2022-12-10T16:52:52;-0.30;99.90
14057;DHT22;7103;54.300;10.180;2022-12-10T16:55:22;-0.40;99.90
14057;DHT22;7103;54.300;10.180;2022-12-10T16:57:50;-0.40;99.90
14057;DHT22;7103;54.300;10.180;2022-12-10T17:00:20;-0.40;99.90
14057;DHT22;7103;54.300;10.180;2022-12-10T17:02:48;-0.50;99.90
14057;DHT22;7103;54.300;10.180;2022-12-10T17:05:29;-0.50;99.90
14057;DHT22;7103;54.300;10.180;2022-12-10T17:07:57;-0.50;99.90
14057;DHT22;7103;54.300;10.180;2022-12-10T17:10:25;-0.50;99.90
14057;DHT22;7103;54.300;10.180;2022-12-10T17:13:11;-0.50;99.90
14057;DHT22;7103;54.300;10.180;2022-12-10T17:15:40;-0.50;99.90
14057;DHT22;7103;54.300;10.180;2022-12-10T17:18:13;-0.60;99.90
14057;DHT22;7103;54.300;10.180;2022-12-10T17:20:41;-0.60;99.90
14057;DHT22;7103;54.300;10.180;2022-12-10T17:23:07;-0.60;99.90
14057;DHT22;7103;54.300;10.180;2022-12-10T17:25:34;-0.60;99.90
14057;DHT22;7103;54.300;10.180;2022-12-10T17:28:01;-0.50;99.90
14057;DHT22;7103;54.300;10.180;2022-12-10T17:30:29;-0.50;99.90
14057;DHT22;7103;54.300;10.180;2022-12-10T17:32:55;-0.50;99.90
14057;DHT22;7103;54.300;10.180;2022-12-10T17:35:22;-0.50;99.90
14057;DHT22;7103;54.300;10.180;2022-12-10T17:37:49;-0.60;99.90
14057;DHT22;7103;54.300;10.180;2022-12-10T17:40:21;-0.60;99.90
14057;DHT22;7103;54.300;10.180;2022-12-10T17:42:49;-0.60;99.90
14057;DHT22;7103;54.300;10.180;2022-12-10T17:45:18;-0.50;99.90
14057;DHT22;7103;54.300;10.180;2022-12-10T17:47:48;-0.50;99.90
14057;DHT22;7103;54.300;10.180;2022-12-10T17:50:23;-0.50;99.90
14057;DHT22;7103;54.300;10.180;2022-12-10T17:52:57;-0.50;99.90
14057;DHT22;7103;54.300;10.180;2022-12-10T17:55:27;-0.50;99.90
14057;DHT22;7103;54.300;10.180;2022-12-10T17:57:55;-0.40;99.90
14057;DHT22;7103;54.300;10.180;2022-12-10T18:00:27;-0.60;99.90
14057;DHT22;7103;54.300;10.180;2022-12-10T18:02:54;-0.50;99.90
14057;DHT22;7103;54.300;10.180;2022-12-10T18:05:23;-0.50;99.90
14057;DHT22;7103;54.300;10.180;2022-12-10T18:07:50;-0.60;99.90
14057;DHT22;7103;54.300;10.180;2022-12-10T18:10:23;-0.60;99.90
14057;DHT22;7103;54.300;10.180;2022-12-10T18:12:50;-0.60;99.90
14057;DHT22;7103;54.300;10.180;2022-12-10T18:15:21;-0.70;99.90
14057;DHT22;7103;54.300;10.180;2022-12-10T18:17:48;-0.60;99.90
14057;DHT22;7103;54.300;10.180;2022-12-10T18:20:24;-0.60;99.90
14057;DHT22;7103;54.300;10.180;2022-12-10T18:22:52;-0.70;99.90